Time;durP1;ratioP1;P1;durP2;ratioP2;P2;SDS_P1;SDS_P2;PMS_P1;PMS_P2;Temp;Humidity;BMP_temperature;BMP_pressure;BME280_temperature;BME280_humidity;BME280_pressure;Samples;Min_cycle;Max_cycle;Signal;HPM_P1;HPM_P2
2023/05/12 00:01:33;;;;;;;0.70;0.70;;;;;;;;;;5057365;28;20206;-64
2023/05/12 00:04:02;;;;;;;1.00;0.70;;;;;;;;;;5057449;28;20211;-64
2023/05/12 00:06:31;;;;;;;2.67;1.10;;;;;;;;;;5057427;28;20262;-63
2023/05/12 00:08:58;;;;;;;1.43;1.00;;;;;;;;;;5057219;28;20753;-63
2023/05/12 00:11:26;;;;;;;1.00;1.00;;;;;;;;;;5057231;28;20227;-64
2023/05/12 00:13:54;;;;;;;1.90;0.80;;;;;;;;;;5059778;28;20238;-63
2023/05/12 00:16:23;;;;;;;3.30;0.97;;;;;;;;;;5060673;28;20227;-64
2023/05/12 00:18:51;;;;;;;0.87;0.87;;;;;;;;;;5061059;28;20693;-64
2023/05/12 00:21:20;;;;;;;1.33;0.70;;;;;;;;;;5061247;28;20213;-64
2023/05/12 00:23:48;;;;;;;1.27;0.80;;;;;;;;;;5060990;28;20266;-64
2023/05/12 00:26:16;;;;;;;2.00;0.97;;;;;;;;;;5060825;28;20301;-63
2023/05/12 00:28:46;;;;;;;0.80;0.80;;;;;;;;;;5061108;28;20218;-63
2023/05/12 00:31:14;;;;;;;1.87;0.80;;;;;;;;;;5060443;28;20760;-64
2023/05/12 00:33:42;;;;;;;1.93;1.10;;;;;;;;;;5060743;28;20211;-64
2023/05/12 00:36:10;;;;;;;1.37;0.70;;;;;;;;;;5060373;28;20728;-64
2023/05/12 00:38:40;;;;;;;1.17;0.70;;;;;;;;;;5059044;28;20226;-64
2023/05/12 00:41:08;;;;;;;1.17;0.80;;;;;;;;;;5047517;28;20200;-64
2023/05/12 00:43:36;;;;;;;1.33;1.07;;;;;;;;;;5052070;28;20218;-64
2023/05/12 00:46:05;;;;;;;1.07;0.90;;;;;;;;;;5051193;28;20219;-63
2023/05/12 00:48:33;;;;;;;2.30;0.73;;;;;;;;;;5048463;28;20282;-64
2023/05/12 00:51:05;;;;;;;1.13;1.00;;;;;;;;;;5050369;28;20721;-64
2023/05/12 00:53:33;;;;;;;1.97;0.70;;;;;;;;;;5050485;28;20661;-64
2023/05/12 00:56:17;;;;;;;2.07;0.87;;;;;;;;;;5048152;28;20230;-63
2023/05/12 00:58:45;;;;;;;2.20;0.80;;;;;;;;;;5052575;28;20210;-63
2023/05/12 01:01:13;;;;;;;1.20;0.87;;;;;;;;;;5048753;28;20218;-64
2023/05/12 01:03:41;;;;;;;1.93;0.90;;;;;;;;;;5049899;28;20546;-62
2023/05/12 01:06:12;;;;;;;1.10;0.97;;;;;;;;;;5048694;28;20287;-62
2023/05/12 01:08:41;;;;;;;0.80;0.80;;;;;;;;;;5046112;28;20209;-62
2023/05/12 01:11:09;;;;;;;1.53;0.70;;;;;;;;;;5053518;28;20280;-61
2023/05/12 01:13:40;;;;;;;1.40;1.03;;;;;;;;;;5055048;28;20689;-62
2023/05/12 01:16:09;;;;;;;1.17;0.80;;;;;;;;;;5043513;28;20245;-62
2023/05/12 01:18:38;;;;;;;0.93;0.83;;;;;;;;;;5052143;28;20199;-62
2023/05/12 01:21:06;;;;;;;2.37;0.87;;;;;;;;;;5058712;28;20198;-62
2023/05/12 01:23:35;;;;;;;1.60;0.80;;;;;;;;;;5057329;28;20226;-62
2023/05/12 01:26:06;;;;;;;1.10;0.70;;;;;;;;;;5050843;28;20706;-64
2023/05/12 01:28:35;;;;;;;0.70;0.70;;;;;;;;;;5052338;28;20204;-62
2023/05/12 01:31:03;;;;;;;1.00;0.80;;;;;;;;;;5042821;28;20222;-62
2023/05/12 01:33:32;;;;;;;3.13;1.10;;;;;;;;;;5057865;28;20287;-62
2023/05/12 01:36:00;;;;;;;0.97;0.90;;;;;;;;;;5049515;28;20246;-62
2023/05/12 01:38:28;;;;;;;1.27;0.70;;;;;;;;;;5047796;28;20607;-62
2023/05/12 01:40:56;;;;;;;1.07;0.97;;;;;;;;;;5047900;28;20200;-62
2023/05/12 01:43:25;;;;;;;1.57;1.20;;;;;;;;;;5050638;28;20195;-63
2023/05/12 01:45:53;;;;;;;1.57;1.00;;;;;;;;;;5048406;28;20218;-63
2023/05/12 01:48:21;;;;;;;1.80;0.83;;;;;;;;;;5049133;28;20628;-62
2023/05/12 01:50:49;;;;;;;0.97;0.80;;;;;;;;;;5049756;28;20227;-63
2023/05/12 01:53:17;;;;;;;2.03;0.70;;;;;;;;;;5048886;28;20305;-63
2023/05/12 01:55:45;;;;;;;1.03;0.90;;;;;;;;;;5048177;28;20234;-62
2023/05/12 01:58:14;;;;;;;1.13;0.97;;;;;;;;;;5049246;28;20576;-62
2023/05/12 02:00:43;;;;;;;4.07;1.30;;;;;;;;;;5043540;28;20286;-63
2023/05/12 02:03:11;;;;;;;1.17;0.90;;;;;;;;;;5047069;28;20606;-62
2023/05/12 02:05:39;;;;;;;1.50;0.93;;;;;;;;;;5047788;28;20238;-62
2023/05/12 02:08:07;;;;;;;1.47;0.90;;;;;;;;;;5049153;28;20202;-62
2023/05/12 02:10:35;;;;;;;3.40;1.23;;;;;;;;;;5048955;28;20211;-62
2023/05/12 02:13:03;;;;;;;1.17;0.90;;;;;;;;;;5048032;28;20211;-62
2023/05/12 02:15:31;;;;;;;1.97;1.13;;;;;;;;;;5048919;28;20218;-62
2023/05/12 02:18:02;;;;;;;1.77;1.10;;;;;;;;;;5047734;28;20203;-62
2023/05/12 02:20:30;;;;;;;1.40;1.00;;;;;;;;;;5049468;28;20195;-62
2023/05/12 02:22:58;;;;;;;2.07;0.97;;;;;;;;;;5053516;28;20205;-63
2023/05/12 02:25:26;;;;;;;1.80;1.37;;;;;;;;;;5058432;28;20605;-63
2023/05/12 02:27:54;;;;;;;1.50;1.00;;;;;;;;;;5053720;28;20211;-62
2023/05/12 02:30:22;;;;;;;1.57;1.00;;;;;;;;;;5058515;28;20213;-62
2023/05/12 02:32:50;;;;;;;1.23;0.80;;;;;;;;;;5058166;28;20230;-62
2023/05/12 02:35:20;;;;;;;1.67;1.10;;;;;;;;;;5058096;28;20281;-63
2023/05/12 02:37:48;;;;;;;1.20;1.10;;;;;;;;;;5058274;28;20580;-63
2023/05/12 02:40:16;;;;;;;2.00;1.20;;;;;;;;;;5058662;28;20206;-63
2023/05/12 02:42:44;;;;;;;0.93;0.90;;;;;;;;;;5058319;28;20199;-61
2023/05/12 02:45:12;;;;;;;2.80;1.20;;;;;;;;;;5058065;28;20233;-62
2023/05/12 02:47:40;;;;;;;1.43;0.90;;;;;;;;;;5058388;28;20206;-62
2023/05/12 02:50:09;;;;;;;3.70;1.30;;;;;;;;;;5058398;28;20211;-62
2023/05/12 02:52:38;;;;;;;1.80;0.90;;;;;;;;;;5058157;28;20241;-62
2023/05/12 02:55:06;;;;;;;2.10;0.90;;;;;;;;;;5057974;28;20227;-62
2023/05/12 02:57:34;;;;;;;0.80;0.80;;;;;;;;;;5058075;28;20286;-62
2023/05/12 03:00:04;;;;;;;3.47;1.00;;;;;;;;;;5057906;28;20207;-62
2023/05/12 03:02:32;;;;;;;0.80;0.80;;;;;;;;;;5058216;28;20285;-62
2023/05/12 03:05:00;;;;;;;2.30;0.83;;;;;;;;;;5057860;28;20237;-63
2023/05/12 03:07:28;;;;;;;2.63;1.20;;;;;;;;;;5057970;28;20611;-63
2023/05/12 03:09:58;;;;;;;1.20;1.00;;;;;;;;;;5057960;28;20638;-62
2023/05/12 03:12:28;;;;;;;3.13;1.10;;;;;;;;;;5057620;28;20697;-62
2023/05/12 03:14:56;;;;;;;2.37;1.17;;;;;;;;;;5057408;28;20655;-62
2023/05/12 03:17:24;;;;;;;1.27;1.17;;;;;;;;;;5058115;28;20211;-62
2023/05/12 03:19:52;;;;;;;0.93;0.93;;;;;;;;;;5057633;28;20207;-62
2023/05/12 03:22:20;;;;;;;1.20;1.10;;;;;;;;;;5057931;28;20207;-62
2023/05/12 03:24:47;;;;;;;0.90;0.90;;;;;;;;;;5057549;28;20680;-63
2023/05/12 03:27:17;;;;;;;2.60;1.10;;;;;;;;;;5057813;28;20209;-63
2023/05/12 03:29:45;;;;;;;1.80;0.90;;;;;;;;;;5057632;28;20206;-62
2023/05/12 03:32:13;;;;;;;0.80;0.80;;;;;;;;;;5057832;28;20326;-63
2023/05/12 03:34:41;;;;;;;1.07;0.97;;;;;;;;;;5057816;28;20242;-62
2023/05/12 03:37:09;;;;;;;3.17;1.30;;;;;;;;;;5057690;28;20227;-63
2023/05/12 03:39:36;;;;;;;1.47;1.00;;;;;;;;;;5057759;28;20210;-62
2023/05/12 03:42:05;;;;;;;1.47;1.30;;;;;;;;;;5057344;28;20214;-63
2023/05/12 03:44:34;;;;;;;0.93;0.90;;;;;;;;;;5057096;28;20576;-62
2023/05/12 03:47:02;;;;;;;1.77;1.37;;;;;;;;;;5057366;28;20307;-62
2023/05/12 03:49:30;;;;;;;1.33;1.23;;;;;;;;;;5061145;28;20572;-63
2023/05/12 03:51:58;;;;;;;1.10;1.00;;;;;;;;;;5073694;28;20263;-62
2023/05/12 03:54:26;;;;;;;1.60;1.50;;;;;;;;;;5048763;28;20293;-62
2023/05/12 03:56:54;;;;;;;2.80;1.33;;;;;;;;;;5061546;28;20262;-62
2023/05/12 03:59:22;;;;;;;1.03;0.80;;;;;;;;;;5059485;28;20217;-62
2023/05/12 04:01:52;;;;;;;1.40;1.30;;;;;;;;;;5047239;28;20563;-63
2023/05/12 04:04:20;;;;;;;2.43;1.20;;;;;;;;;;5051200;28;20195;-63
2023/05/12 04:06:48;;;;;;;2.77;1.17;;;;;;;;;;5047815;28;20279;-63
2023/05/12 04:09:16;;;;;;;1.00;1.00;;;;;;;;;;5049594;28;20403;-63
2023/05/12 04:11:45;;;;;;;2.50;1.40;;;;;;;;;;5049947;28;20203;-63
2023/05/12 04:14:13;;;;;;;4.13;1.17;;;;;;;;;;5049883;28;20551;-62
2023/05/12 04:16:40;;;;;;;2.43;1.30;;;;;;;;;;5052098;28;20223;-63
2023/05/12 04:19:10;;;;;;;2.23;1.50;;;;;;;;;;5050876;28;20206;-62
2023/05/12 04:21:38;;;;;;;2.20;1.33;;;;;;;;;;5051204;28;20214;-63
2023/05/12 04:24:06;;;;;;;1.53;1.17;;;;;;;;;;5049660;28;20284;-63
2023/05/12 04:26:34;;;;;;;5.40;1.37;;;;;;;;;;5051518;28;20224;-63
2023/05/12 04:29:02;;;;;;;2.30;1.10;;;;;;;;;;5049102;28;20199;-63
2023/05/12 04:31:32;;;;;;;2.47;1.30;;;;;;;;;;5052803;28;20201;-63
2023/05/12 04:34:00;;;;;;;2.67;1.47;;;;;;;;;;5053166;28;20257;-62
2023/05/12 04:36:30;;;;;;;2.70;1.20;;;;;;;;;;5054125;28;20253;-63
2023/05/12 04:38:58;;;;;;;3.20;1.40;;;;;;;;;;5055968;28;20205;-62
2023/05/12 04:41:26;;;;;;;1.60;1.50;;;;;;;;;;5058080;28;20203;-62
2023/05/12 04:43:53;;;;;;;3.33;1.67;;;;;;;;;;5059123;28;20211;-63
2023/05/12 04:46:24;;;;;;;4.27;1.60;;;;;;;;;;5056418;28;20223;-63
2023/05/12 04:48:52;;;;;;;1.37;1.20;;;;;;;;;;5050842;28;20674;-64
2023/05/12 04:51:20;;;;;;;3.83;1.60;;;;;;;;;;5058374;28;20222;-62
2023/05/12 04:53:50;;;;;;;2.57;1.40;;;;;;;;;;5052994;28;20938;-65
2023/05/12 04:56:18;;;;;;;2.03;1.50;;;;;;;;;;5058751;28;20229;-66
2023/05/12 04:58:46;;;;;;;2.97;1.40;;;;;;;;;;5051436;28;20245;-64
2023/05/12 05:01:14;;;;;;;1.97;1.30;;;;;;;;;;5057103;28;20234;-65
2023/05/12 05:03:42;;;;;;;1.93;1.30;;;;;;;;;;5058142;28;20203;-65
2023/05/12 05:06:10;;;;;;;3.00;1.27;;;;;;;;;;5050271;28;20656;-65
2023/05/12 05:08:38;;;;;;;2.17;1.30;;;;;;;;;;5055516;28;20709;-65
2023/05/12 05:11:07;;;;;;;2.77;1.20;;;;;;;;;;5040225;28;20238;-65
2023/05/12 05:13:35;;;;;;;3.47;1.57;;;;;;;;;;5039878;28;20638;-66
2023/05/12 05:16:03;;;;;;;2.33;1.33;;;;;;;;;;5049755;28;20250;-66
2023/05/12 05:18:31;;;;;;;2.00;1.20;;;;;;;;;;5060052;28;20264;-65
2023/05/12 05:20:59;;;;;;;1.90;1.57;;;;;;;;;;5059674;28;20210;-65
2023/05/12 05:23:27;;;;;;;3.63;1.50;;;;;;;;;;5059420;28;20203;-65
2023/05/12 05:25:55;;;;;;;2.63;1.60;;;;;;;;;;5059803;28;20223;-65
2023/05/12 05:28:25;;;;;;;2.27;1.50;;;;;;;;;;5059588;28;20204;-65
2023/05/12 05:30:53;;;;;;;3.17;1.37;;;;;;;;;;5052773;28;20238;-65
2023/05/12 05:33:21;;;;;;;2.87;1.67;;;;;;;;;;5059810;28;20230;-65
2023/05/12 05:35:49;;;;;;;2.37;1.53;;;;;;;;;;5059672;28;20235;-65
2023/05/12 05:38:17;;;;;;;6.83;1.70;;;;;;;;;;5059411;28;20203;-65
2023/05/12 05:40:45;;;;;;;3.90;2.07;;;;;;;;;;5059214;28;20211;-65
2023/05/12 05:43:20;;;;;;;1.50;1.40;;;;;;;;;;5059379;28;20305;-65
2023/05/12 05:45:50;;;;;;;2.80;1.40;;;;;;;;;;5051132;28;20231;-64
2023/05/12 05:48:18;;;;;;;2.33;1.57;;;;;;;;;;5052280;28;20210;-64
2023/05/12 05:50:46;;;;;;;3.73;1.63;;;;;;;;;;5052053;28;20226;-64
2023/05/12 05:53:14;;;;;;;1.33;1.20;;;;;;;;;;5049801;28;20321;-63
2023/05/12 05:55:42;;;;;;;2.10;1.20;;;;;;;;;;5051392;28;20214;-62
2023/05/12 05:58:10;;;;;;;2.17;1.40;;;;;;;;;;5056419;28;20256;-62
2023/05/12 06:00:38;;;;;;;1.67;1.20;;;;;;;;;;5055944;28;20199;-62
2023/05/12 06:03:07;;;;;;;2.23;1.20;;;;;;;;;;5054945;28;20277;-62
2023/05/12 06:05:35;;;;;;;2.93;1.83;;;;;;;;;;5045166;28;20306;-63
2023/05/12 06:08:07;;;;;;;1.73;1.10;;;;;;;;;;5044544;28;20250;-63
2023/05/12 06:10:36;;;;;;;2.20;1.20;;;;;;;;;;5044958;28;20658;-63
2023/05/12 06:13:04;;;;;;;2.90;1.23;;;;;;;;;;5044481;28;20230;-63
2023/05/12 06:15:32;;;;;;;1.57;1.47;;;;;;;;;;5038396;28;20314;-63
2023/05/12 06:18:00;;;;;;;4.10;1.20;;;;;;;;;;5038538;28;20614;-63
2023/05/12 06:20:30;;;;;;;5.20;1.53;;;;;;;;;;5046508;28;20256;-63
2023/05/12 06:22:58;;;;;;;2.80;1.37;;;;;;;;;;5058757;28;20270;-63
2023/05/12 06:25:26;;;;;;;2.20;1.07;;;;;;;;;;5058244;28;20246;-63
2023/05/12 06:27:54;;;;;;;1.47;1.10;;;;;;;;;;5053869;28;20257;-63
2023/05/12 06:30:22;;;;;;;1.33;0.90;;;;;;;;;;5058099;28;20258;-63
2023/05/12 06:32:50;;;;;;;1.77;0.93;;;;;;;;;;5058479;28;20214;-63
2023/05/12 06:35:18;;;;;;;1.90;1.10;;;;;;;;;;5058353;28;20234;-63
2023/05/12 06:37:49;;;;;;;2.63;1.20;;;;;;;;;;5058204;28;20709;-63
2023/05/12 06:40:18;;;;;;;1.67;1.47;;;;;;;;;;5058436;28;20246;-63
2023/05/12 06:42:46;;;;;;;2.97;1.40;;;;;;;;;;5057943;28;20206;-63
2023/05/12 06:45:14;;;;;;;1.30;1.20;;;;;;;;;;5057496;28;20271;-63
2023/05/12 06:47:42;;;;;;;2.13;1.30;;;;;;;;;;5057895;28;20246;-63
2023/05/12 06:50:10;;;;;;;1.90;1.10;;;;;;;;;;5058019;28;20212;-63
2023/05/12 06:52:38;;;;;;;1.20;1.10;;;;;;;;;;5057921;28;20646;-63
2023/05/12 06:55:08;;;;;;;1.30;1.20;;;;;;;;;;5058075;28;20314;-63
2023/05/12 06:57:36;;;;;;;1.73;1.30;;;;;;;;;;5051366;28;20261;-62
2023/05/12 07:00:05;;;;;;;4.50;1.40;;;;;;;;;;5057944;28;20230;-62
2023/05/12 07:02:33;;;;;;;1.33;1.27;;;;;;;;;;5057813;28;20676;-62
2023/05/12 07:05:01;;;;;;;1.53;1.30;;;;;;;;;;5057838;28;20211;-62
2023/05/12 07:07:29;;;;;;;2.13;1.30;;;;;;;;;;5057667;28;20234;-62
2023/05/12 07:09:58;;;;;;;1.13;1.13;;;;;;;;;;5057882;28;20218;-62
2023/05/12 07:12:27;;;;;;;3.13;1.30;;;;;;;;;;5057529;28;20237;-63
2023/05/12 07:14:55;;;;;;;1.40;1.30;;;;;;;;;;5057500;28;20262;-62
2023/05/12 07:17:23;;;;;;;1.13;1.13;;;;;;;;;;5057897;28;20256;-62
2023/05/12 07:19:51;;;;;;;1.40;1.30;;;;;;;;;;5057621;28;20211;-63
2023/05/12 07:22:19;;;;;;;1.73;1.10;;;;;;;;;;5056848;28;20203;-63
2023/05/12 07:24:47;;;;;;;1.17;1.07;;;;;;;;;;5057314;28;20254;-63
2023/05/12 07:27:16;;;;;;;1.27;1.17;;;;;;;;;;5057234;28;20755;-63
2023/05/12 07:29:46;;;;;;;1.33;1.07;;;;;;;;;;5057376;28;20268;-63
2023/05/12 07:32:17;;;;;;;2.27;1.30;;;;;;;;;;5057617;28;20245;-62
2023/05/12 07:34:46;;;;;;;2.00;1.30;;;;;;;;;;5057109;28;20697;-63
2023/05/12 07:37:14;;;;;;;3.40;1.50;;;;;;;;;;5044586;28;20211;-63
2023/05/12 07:39:42;;;;;;;2.70;1.40;;;;;;;;;;5037398;28;20675;-63
2023/05/12 07:42:10;;;;;;;3.17;1.47;;;;;;;;;;5037533;28;20215;-63
2023/05/12 07:44:38;;;;;;;1.63;1.30;;;;;;;;;;5056890;28;20222;-62
2023/05/12 07:47:11;;;;;;;1.87;1.50;;;;;;;;;;5057098;28;20284;-63
2023/05/12 07:49:39;;;;;;;1.33;1.23;;;;;;;;;;5057544;28;20708;-63
2023/05/12 07:52:08;;;;;;;1.20;1.10;;;;;;;;;;5057028;28;20210;-63
2023/05/12 07:54:36;;;;;;;1.57;1.47;;;;;;;;;;5057155;28;20269;-62
2023/05/12 07:57:05;;;;;;;1.50;1.37;;;;;;;;;;5053718;28;20376;-62
2023/05/12 07:59:32;;;;;;;1.50;1.40;;;;;;;;;;5053275;28;20240;-62
2023/05/12 08:02:00;;;;;;;2.43;1.33;;;;;;;;;;5050325;28;20238;-62
2023/05/12 08:04:30;;;;;;;1.43;1.17;;;;;;;;;;5054380;28;20199;-62
2023/05/12 08:06:58;;;;;;;3.10;1.83;;;;;;;;;;5050126;28;20215;-63
2023/05/12 08:09:26;;;;;;;2.00;1.80;;;;;;;;;;5056591;28;20207;-63
2023/05/12 08:11:54;;;;;;;2.90;1.57;;;;;;;;;;5052138;28;20286;-63
2023/05/12 08:14:24;;;;;;;1.40;1.20;;;;;;;;;;5045638;28;20310;-62
2023/05/12 08:16:52;;;;;;;1.43;1.30;;;;;;;;;;5036926;28;20254;-63
2023/05/12 08:19:20;;;;;;;2.40;1.40;;;;;;;;;;5037245;28;20207;-62
2023/05/12 08:21:50;;;;;;;1.70;0.97;;;;;;;;;;5037215;28;20208;-62
2023/05/12 08:24:18;;;;;;;1.60;1.10;;;;;;;;;;5036859;28;20580;-62
2023/05/12 08:26:46;;;;;;;2.50;1.40;;;;;;;;;;5047417;28;20222;-63
2023/05/12 08:29:15;;;;;;;1.23;1.03;;;;;;;;;;5056696;28;20215;-62
2023/05/12 08:31:43;;;;;;;1.10;1.00;;;;;;;;;;5056774;28;20615;-63
2023/05/12 08:34:11;;;;;;;2.73;1.40;;;;;;;;;;5057904;28;20214;-63
2023/05/12 08:36:39;;;;;;;2.03;1.37;;;;;;;;;;5054552;28;20230;-62
2023/05/12 08:39:10;;;;;;;1.87;1.40;;;;;;;;;;5055204;28;20198;-59
2023/05/12 08:41:42;;;;;;;1.03;1.00;;;;;;;;;;5056590;28;20198;-60
2023/05/12 08:44:10;;;;;;;1.20;1.10;;;;;;;;;;5058760;28;20195;-59
2023/05/12 08:46:39;;;;;;;2.20;1.30;;;;;;;;;;5054357;28;20223;-59
2023/05/12 08:49:10;;;;;;;1.43;1.10;;;;;;;;;;5057449;28;20200;-59
2023/05/12 08:51:43;;;;;;;3.17;1.30;;;;;;;;;;5054558;28;20198;-59
2023/05/12 08:54:22;;;;;;;4.33;1.10;;;;;;;;;;5053980;28;20195;-59
2023/05/12 08:56:51;;;;;;;1.60;1.50;;;;;;;;;;5054623;28;20219;-62
2023/05/12 08:59:23;;;;;;;2.73;1.20;;;;;;;;;;5058749;28;20210;-61
2023/05/12 09:01:51;;;;;;;1.63;1.33;;;;;;;;;;5059913;28;20213;-62
2023/05/12 09:04:19;;;;;;;1.77;1.67;;;;;;;;;;5058500;28;20229;-61
2023/05/12 09:06:47;;;;;;;3.20;1.53;;;;;;;;;;5053002;28;20250;-61
2023/05/12 09:09:16;;;;;;;2.50;1.17;;;;;;;;;;5056728;28;20199;-61
2023/05/12 09:11:47;;;;;;;2.03;1.37;;;;;;;;;;5054616;28;20274;-62
2023/05/12 09:14:18;;;;;;;1.17;1.10;;;;;;;;;;5056290;28;20211;-61
2023/05/12 09:16:49;;;;;;;1.93;1.40;;;;;;;;;;5057690;28;20230;-62
2023/05/12 09:19:19;;;;;;;1.60;1.40;;;;;;;;;;5055815;28;20257;-63
2023/05/12 09:21:48;;;;;;;2.03;1.40;;;;;;;;;;5042118;28;20229;-62
2023/05/12 09:24:16;;;;;;;2.73;1.37;;;;;;;;;;5039975;28;20235;-63
2023/05/12 09:26:51;;;;;;;4.07;1.53;;;;;;;;;;5050156;28;20250;-62
2023/05/12 09:29:19;;;;;;;2.90;1.57;;;;;;;;;;5059408;28;20213;-62
2023/05/12 09:31:58;;;;;;;4.03;2.00;;;;;;;;;;5059596;28;20202;-62
2023/05/12 09:34:27;;;;;;;1.97;1.43;;;;;;;;;;5059564;28;20214;-62
2023/05/12 09:36:56;;;;;;;1.83;1.63;;;;;;;;;;5059271;28;20613;-62
2023/05/12 09:39:24;;;;;;;3.33;1.57;;;;;;;;;;5059517;28;20220;-62
2023/05/12 09:41:54;;;;;;;3.73;1.53;;;;;;;;;;5059267;28;20570;-62
2023/05/12 09:44:23;;;;;;;2.23;1.53;;;;;;;;;;5058966;28;20203;-62
2023/05/12 09:46:51;;;;;;;2.83;1.80;;;;;;;;;;5058246;28;20226;-62
2023/05/12 09:49:19;;;;;;;2.37;1.50;;;;;;;;;;5059067;28;20202;-62
2023/05/12 09:51:51;;;;;;;5.23;1.50;;;;;;;;;;5059069;28;20218;-62
2023/05/12 09:54:27;;;;;;;2.87;1.40;;;;;;;;;;5059151;28;20203;-62
2023/05/12 09:56:57;;;;;;;1.40;1.30;;;;;;;;;;5052740;28;20290;-62
2023/05/12 09:59:27;;;;;;;2.60;1.40;;;;;;;;;;5058577;28;20579;-62
2023/05/12 10:01:58;;;;;;;3.87;1.80;;;;;;;;;;5059050;28;20210;-62
2023/05/12 10:04:32;;;;;;;1.80;1.47;;;;;;;;;;5059125;28;20221;-61
2023/05/12 10:07:00;;;;;;;1.80;1.47;;;;;;;;;;5058665;28;20288;-63
2023/05/12 10:09:32;;;;;;;1.50;1.40;;;;;;;;;;5058812;28;20268;-63
2023/05/12 10:12:03;;;;;;;1.40;1.30;;;;;;;;;;5058877;28;20210;-61
2023/05/12 10:14:31;;;;;;;2.40;1.30;;;;;;;;;;5057258;28;20203;-61
2023/05/12 10:16:59;;;;;;;3.60;1.57;;;;;;;;;;5054725;28;20222;-62
2023/05/12 10:19:28;;;;;;;2.63;1.50;;;;;;;;;;5056373;28;20658;-61
2023/05/12 10:21:57;;;;;;;2.03;1.40;;;;;;;;;;5057567;28;20285;-62
2023/05/12 10:24:26;;;;;;;5.67;1.77;;;;;;;;;;5054162;28;20231;-62
2023/05/12 10:26:55;;;;;;;3.57;1.40;;;;;;;;;;5055696;28;20698;-61
2023/05/12 10:29:28;;;;;;;1.73;1.50;;;;;;;;;;5052973;28;20278;-63
2023/05/12 10:31:57;;;;;;;1.27;1.20;;;;;;;;;;5057524;28;20256;-61
2023/05/12 10:34:29;;;;;;;1.70;1.60;;;;;;;;;;5051029;28;20608;-63
2023/05/12 10:36:58;;;;;;;2.43;1.70;;;;;;;;;;5056167;28;20270;-61
2023/05/12 10:39:28;;;;;;;1.20;1.10;;;;;;;;;;5053299;28;20214;-62
2023/05/12 10:42:00;;;;;;;2.43;1.70;;;;;;;;;;5054564;28;20199;-62
2023/05/12 10:44:30;;;;;;;3.13;1.40;;;;;;;;;;5054245;28;20199;-61
2023/05/12 10:46:59;;;;;;;2.53;1.60;;;;;;;;;;5055455;28;20226;-62
2023/05/12 10:49:33;;;;;;;1.17;1.07;;;;;;;;;;5039008;28;20271;-63
2023/05/12 10:52:01;;;;;;;1.20;1.20;;;;;;;;;;5038217;28;20215;-62
2023/05/12 10:54:29;;;;;;;1.50;1.40;;;;;;;;;;5038139;28;20231;-62
2023/05/12 10:56:58;;;;;;;1.57;1.27;;;;;;;;;;5038169;28;20230;-62
2023/05/12 10:59:27;;;;;;;1.50;1.10;;;;;;;;;;5055555;28;20658;-61
2023/05/12 11:01:58;;;;;;;2.80;1.47;;;;;;;;;;5058100;28;20207;-62
2023/05/12 11:04:39;;;;;;;3.70;1.57;;;;;;;;;;5058016;28;20206;-63
2023/05/12 11:07:08;;;;;;;1.43;1.30;;;;;;;;;;5057827;28;20280;-63
2023/05/12 11:09:38;;;;;;;1.97;1.20;;;;;;;;;;5058000;28;20313;-62
2023/05/12 11:12:17;;;;;;;1.30;1.10;;;;;;;;;;5054933;28;20203;-63
2023/05/12 11:14:45;;;;;;;2.60;1.60;;;;;;;;;;5057179;28;20206;-64
2023/05/12 11:17:18;;;;;;;3.00;1.30;;;;;;;;;;5055617;28;20225;-61
2023/05/12 11:19:47;;;;;;;2.63;1.70;;;;;;;;;;5054984;28;20210;-60
2023/05/12 11:22:17;;;;;;;2.43;1.50;;;;;;;;;;5054466;28;20266;-62
2023/05/12 11:24:46;;;;;;;2.23;1.87;;;;;;;;;;5053428;28;20769;-62
2023/05/12 11:27:14;;;;;;;5.50;1.40;;;;;;;;;;5052941;28;20282;-62
2023/05/12 11:29:42;;;;;;;2.77;1.67;;;;;;;;;;5052135;28;20282;-62
2023/05/12 11:32:11;;;;;;;2.93;1.60;;;;;;;;;;5051049;28;20697;-62
2023/05/12 11:34:40;;;;;;;5.10;2.10;;;;;;;;;;5056804;28;20289;-62
2023/05/12 11:37:08;;;;;;;2.10;1.70;;;;;;;;;;5041968;28;20310;-64
2023/05/12 11:39:36;;;;;;;2.23;1.23;;;;;;;;;;5041593;28;20204;-62
2023/05/12 11:42:07;;;;;;;3.60;1.43;;;;;;;;;;5052554;28;20204;-63
2023/05/12 11:44:46;;;;;;;2.13;1.33;;;;;;;;;;5046971;28;20579;-62
2023/05/12 11:47:14;;;;;;;1.20;1.10;;;;;;;;;;5057033;28;20256;-63
2023/05/12 11:49:47;;;;;;;1.90;1.23;;;;;;;;;;5057365;28;20215;-63
2023/05/12 11:52:16;;;;;;;1.00;1.00;;;;;;;;;;5045457;28;20238;-64
2023/05/12 11:54:48;;;;;;;1.60;1.40;;;;;;;;;;5057257;28;20207;-65
2023/05/12 11:57:24;;;;;;;6.57;4.17;;;;;;;;;;5057069;28;20230;-65
2023/05/12 11:59:56;;;;;;;3.73;2.00;;;;;;;;;;5057179;28;20213;-65
2023/05/12 12:02:24;;;;;;;2.13;1.20;;;;;;;;;;5057144;28;20235;-65
2023/05/12 12:04:54;;;;;;;1.40;1.30;;;;;;;;;;5040947;28;20217;-65
2023/05/12 12:07:31;;;;;;;2.63;1.50;;;;;;;;;;5037512;28;20203;-65
2023/05/12 12:09:59;;;;;;;1.80;1.40;;;;;;;;;;5040020;28;20275;-65
2023/05/12 12:12:27;;;;;;;1.47;1.37;;;;;;;;;;5041296;28;20265;-65
2023/05/12 12:14:58;;;;;;;1.30;1.20;;;;;;;;;;5041082;28;20214;-65
2023/05/12 12:17:29;;;;;;;1.73;1.40;;;;;;;;;;5040932;28;20293;-65
2023/05/12 12:19:59;;;;;;;1.70;1.50;;;;;;;;;;5041486;28;20246;-65
2023/05/12 12:22:28;;;;;;;3.27;1.67;;;;;;;;;;5041174;28;20290;-65
2023/05/12 12:24:56;;;;;;;2.27;2.07;;;;;;;;;;5040939;28;20266;-64
2023/05/12 12:27:24;;;;;;;1.60;1.50;;;;;;;;;;5056897;28;20195;-65
2023/05/12 12:29:52;;;;;;;3.90;1.90;;;;;;;;;;5060567;28;20745;-65
2023/05/12 12:32:20;;;;;;;1.50;1.40;;;;;;;;;;5057291;28;20613;-65
2023/05/12 12:34:48;;;;;;;3.93;1.50;;;;;;;;;;5054233;28;20209;-65
2023/05/12 12:37:17;;;;;;;2.80;1.37;;;;;;;;;;5060469;28;20234;-65
2023/05/12 12:39:46;;;;;;;2.73;1.53;;;;;;;;;;5060645;28;20670;-65
2023/05/12 12:42:14;;;;;;;2.27;1.30;;;;;;;;;;5060602;28;20237;-65
2023/05/12 12:44:42;;;;;;;2.73;1.10;;;;;;;;;;5060288;28;20670;-65
2023/05/12 12:47:10;;;;;;;2.00;1.40;;;;;;;;;;5060805;28;20285;-65
2023/05/12 12:49:38;;;;;;;2.87;1.00;;;;;;;;;;5060683;28;20214;-65
2023/05/12 12:52:07;;;;;;;1.60;1.40;;;;;;;;;;5059485;28;20206;-65
2023/05/12 12:54:36;;;;;;;1.93;1.40;;;;;;;;;;5060631;28;20293;-65
2023/05/12 12:57:04;;;;;;;3.83;1.20;;;;;;;;;;5060090;28;20697;-64
2023/05/12 12:59:32;;;;;;;4.03;1.83;;;;;;;;;;5059938;28;20206;-65
2023/05/12 13:02:01;;;;;;;2.93;1.00;;;;;;;;;;5060265;28;20289;-65
2023/05/12 13:04:29;;;;;;;2.33;1.10;;;;;;;;;;5060431;28;20203;-65
2023/05/12 13:06:57;;;;;;;3.70;1.27;;;;;;;;;;5060289;28;20223;-65
2023/05/12 13:09:25;;;;;;;1.40;1.20;;;;;;;;;;5060165;28;20571;-65
2023/05/12 13:11:54;;;;;;;5.30;1.30;;;;;;;;;;5049416;28;20571;-65
2023/05/12 13:14:23;;;;;;;1.47;1.37;;;;;;;;;;5056856;28;20582;-65
2023/05/12 13:16:51;;;;;;;3.93;1.47;;;;;;;;;;5060091;28;20266;-65
2023/05/12 13:19:20;;;;;;;2.93;1.60;;;;;;;;;;5060037;28;20268;-65
2023/05/12 13:21:48;;;;;;;2.87;1.50;;;;;;;;;;5060136;28;20207;-65
2023/05/12 13:24:16;;;;;;;2.70;1.30;;;;;;;;;;5059754;28;20242;-65
2023/05/12 13:26:44;;;;;;;2.00;1.33;;;;;;;;;;5059862;28;20235;-65
2023/05/12 13:29:13;;;;;;;1.50;1.10;;;;;;;;;;5059466;28;20246;-65
2023/05/12 13:31:41;;;;;;;3.67;1.20;;;;;;;;;;5056741;28;20203;-65
2023/05/12 13:34:09;;;;;;;1.20;1.10;;;;;;;;;;5059430;28;20222;-65
2023/05/12 13:36:37;;;;;;;1.77;1.20;;;;;;;;;;5059445;28;20226;-65
2023/05/12 13:39:05;;;;;;;2.83;0.90;;;;;;;;;;5059601;28;20218;-65
2023/05/12 13:41:33;;;;;;;1.23;1.03;;;;;;;;;;5059329;28;20715;-65
2023/05/12 13:44:02;;;;;;;1.20;1.20;;;;;;;;;;5059338;28;20290;-65
2023/05/12 13:46:31;;;;;;;2.93;1.40;;;;;;;;;;5059496;28;20222;-65
2023/05/12 13:48:59;;;;;;;1.43;1.30;;;;;;;;;;5059199;28;20264;-65
2023/05/12 13:51:27;;;;;;;1.60;1.20;;;;;;;;;;5059125;28;20226;-65
2023/05/12 13:53:55;;;;;;;1.20;1.20;;;;;;;;;;5059444;28;20257;-65
2023/05/12 13:56:24;;;;;;;2.50;1.23;;;;;;;;;;5058848;28;20226;-65
2023/05/12 13:58:52;;;;;;;2.97;1.33;;;;;;;;;;5054659;28;20222;-64
2023/05/12 14:01:20;;;;;;;2.03;1.30;;;;;;;;;;5055693;28;20232;-63
2023/05/12 14:03:49;;;;;;;5.57;1.20;;;;;;;;;;5059403;28;20238;-64
2023/05/12 14:06:17;;;;;;;3.53;1.37;;;;;;;;;;5057269;28;20727;-65
2023/05/12 14:08:46;;;;;;;1.47;1.00;;;;;;;;;;5044725;28;20599;-64
2023/05/12 14:11:14;;;;;;;0.80;0.80;;;;;;;;;;5056778;28;20207;-64
2023/05/12 14:13:42;;;;;;;1.63;1.13;;;;;;;;;;5065235;28;20208;-64
2023/05/12 14:16:12;;;;;;;1.00;1.00;;;;;;;;;;5053344;28;20231;-63
2023/05/12 14:18:41;;;;;;;4.17;1.20;;;;;;;;;;5038966;28;20278;-62
2023/05/12 14:21:13;;;;;;;2.13;1.13;;;;;;;;;;5038569;28;20262;-62
2023/05/12 14:23:41;;;;;;;2.27;1.00;;;;;;;;;;5046616;28;20606;-62
2023/05/12 14:26:09;;;;;;;2.37;1.00;;;;;;;;;;5058114;28;20285;-62
2023/05/12 14:28:37;;;;;;;1.63;1.20;;;;;;;;;;5058677;28;20203;-63
2023/05/12 14:31:05;;;;;;;0.87;0.87;;;;;;;;;;5051102;28;20209;-62
2023/05/12 14:33:33;;;;;;;1.10;1.07;;;;;;;;;;5056090;28;20208;-65
2023/05/12 14:36:01;;;;;;;2.13;1.40;;;;;;;;;;5058471;28;20229;-60
2023/05/12 14:38:35;;;;;;;1.80;1.27;;;;;;;;;;5053827;28;20683;-60
2023/05/12 14:41:04;;;;;;;3.60;1.47;;;;;;;;;;5052113;28;20195;-60
2023/05/12 14:43:32;;;;;;;3.93;1.57;;;;;;;;;;5051982;28;20281;-61
2023/05/12 14:46:00;;;;;;;4.90;1.50;;;;;;;;;;5055246;28;20218;-61
2023/05/12 14:48:29;;;;;;;4.00;1.40;;;;;;;;;;5050567;28;20221;-60
2023/05/12 14:50:57;;;;;;;4.60;1.40;;;;;;;;;;5054699;28;20225;-60
2023/05/12 14:53:25;;;;;;;3.70;1.27;;;;;;;;;;5052172;28;20663;-63